createdAt,value
2022-08-05T00:01:28.160Z,38.12
2022-08-05T00:03:57.132Z,38.77
2022-08-05T00:06:30.655Z,38.48
2022-08-05T00:09:00.385Z,38.49
2022-08-05T00:11:30.598Z,38.33
2022-08-05T00:14:12.739Z,38.80
2022-08-05T00:16:52.670Z,38.95
2022-08-05T00:19:23.292Z,38.95
2022-08-05T00:21:51.886Z,38.93
2022-08-05T00:24:24.899Z,38.67
2022-08-05T00:26:58.561Z,39.17
2022-08-05T00:29:26.044Z,39.14
2022-08-05T00:32:13.476Z,39.29
2022-08-05T00:35:04.825Z,39.29
2022-08-05T00:37:50.632Z,39.49
2022-08-05T00:40:26.918Z,39.46
2022-08-05T00:42:54.979Z,39.41
2022-08-05T00:45:28.399Z,39.52
2022-08-05T00:48:09.436Z,39.84
2022-08-05T00:50:37.142Z,39.88
2022-08-05T00:53:09.734Z,39.58
2022-08-05T00:55:50.923Z,40.02
2022-08-05T00:58:19.196Z,40.77
2022-08-05T01:00:47.710Z,40.62
2022-08-05T01:03:22.973Z,40.91
2022-08-05T01:05:51.223Z,41.32
2022-08-05T01:08:39.225Z,41.08
2022-08-05T01:11:14.011Z,41.25
2022-08-05T01:14:08.621Z,41.36
2022-08-05T01:17:06.474Z,41.46
2022-08-05T01:20:02.026Z,41.45
2022-08-05T01:22:35.811Z,41.51
2022-08-05T01:25:39.729Z,41.54
2022-08-05T01:28:24.285Z,41.45
2022-08-05T01:31:21.049Z,41.75
2022-08-05T01:33:54.366Z,42.01
2022-08-05T01:36:28.153Z,41.61
2022-08-05T01:39:00.969Z,41.74
2022-08-05T01:41:32.657Z,42.00
2022-08-05T01:44:00.819Z,42.12
2022-08-05T01:46:42.828Z,42.07
2022-08-05T01:49:22.894Z,42.16
2022-08-05T01:51:55.098Z,42.26
2022-08-05T01:54:27.139Z,42.50
2022-08-05T01:58:09.431Z,42.38
2022-08-05T01:59:48.419Z,42.69
2022-08-05T02:02:17.752Z,42.42
2022-08-05T02:04:49.712Z,42.49
2022-08-05T02:07:21.866Z,42.45
2022-08-05T02:09:51.981Z,42.99
2022-08-05T02:12:42.976Z,42.74
2022-08-05T02:15:24.271Z,42.66
2022-08-05T02:18:28.404Z,43.05
2022-08-05T02:20:58.717Z,43.44
2022-08-05T02:23:33.512Z,43.24
2022-08-05T02:26:05.136Z,43.50
2022-08-05T02:28:41.772Z,43.46
2022-08-05T02:31:17.254Z,43.94
2022-08-05T02:33:57.423Z,44.45
2022-08-05T02:36:31.361Z,44.00
2022-08-05T02:39:00.442Z,44.61
2022-08-05T02:41:36.148Z,44.44
2022-08-05T02:44:13.227Z,44.49
2022-08-05T02:46:53.159Z,44.28
2022-08-05T02:49:27.232Z,44.49
2022-08-05T02:52:04.952Z,44.41
2022-08-05T02:54:35.047Z,44.86
2022-08-05T02:57:10.182Z,44.83
2022-08-05T02:59:54.245Z,44.75
2022-08-05T03:02:24.350Z,44.85
2022-08-05T03:04:57.304Z,44.84
2022-08-05T03:07:59.372Z,45.75
2022-08-05T03:10:15.717Z,45.63
2022-08-05T03:12:51.856Z,45.09
2022-08-05T03:15:18.571Z,45.46
2022-08-05T03:17:45.069Z,45.40
2022-08-05T03:20:12.015Z,45.45
2022-08-05T03:22:43.892Z,44.94
2022-08-05T03:25:32.587Z,45.75
2022-08-05T03:27:59.954Z,46.35
2022-08-05T03:30:33.563Z,46.96
2022-08-05T03:33:05.740Z,48.64
2022-08-05T03:35:33.714Z,48.18
2022-08-05T03:38:01.157Z,48.75
2022-08-05T03:40:32.004Z,49.84
2022-08-05T03:42:59.500Z,49.95
2022-08-05T03:45:57.290Z,50.23
2022-08-05T03:48:25.334Z,50.28
2022-08-05T03:50:59.027Z,50.76
2022-08-05T03:55:51.172Z,50.43
2022-08-05T03:56:42.039Z,50.71
2022-08-05T03:59:47.411Z,51.01
2022-08-05T04:02:38.500Z,51.14
2022-08-05T04:05:09.541Z,50.40
2022-08-05T04:07:57.479Z,51.04
2022-08-05T04:10:27.877Z,51.49
2022-08-05T04:12:56.362Z,51.05
2022-08-05T04:15:26.453Z,51.47
2022-08-05T04:17:59.877Z,51.96
2022-08-05T04:20:26.612Z,52.49
2022-08-05T04:22:53.080Z,52.31
2022-08-05T04:25:19.921Z,52.46
2022-08-05T04:28:11.183Z,51.53
2022-08-05T04:30:39.094Z,50.71
2022-08-05T04:33:14.523Z,51.95
2022-08-05T04:36:15.956Z,50.46
2022-08-05T04:38:39.915Z,50.44
2022-08-05T04:41:09.311Z,50.32
2022-08-05T04:43:36.467Z,50.81
2022-08-05T04:46:05.160Z,51.07
2022-08-05T04:48:31.939Z,50.68
2022-08-05T04:51:02.552Z,50.77
2022-08-05T04:53:33.587Z,50.66
2022-08-05T04:56:32.341Z,50.46
2022-08-05T04:58:48.456Z,50.46
2022-08-05T05:01:15.070Z,48.62
2022-08-05T05:04:00.543Z,47.34
2022-08-05T05:06:40.281Z,45.73
2022-08-05T05:09:14.176Z,45.86
2022-08-05T05:11:55.693Z,45.33
2022-08-05T05:14:27.870Z,43.52
2022-08-05T05:16:59.096Z,44.06
2022-08-05T05:19:27.496Z,42.39
2022-08-05T05:22:22.936Z,42.45
2022-08-05T05:24:56.886Z,41.48
2022-08-05T05:27:41.156Z,41.32
2022-08-05T05:30:15.301Z,41.63
2022-08-05T05:32:49.247Z,41.93
2022-08-05T05:35:19.901Z,44.45
2022-08-05T05:37:59.381Z,43.83
2022-08-05T05:40:30.803Z,43.62
2022-08-05T05:43:02.110Z,43.75
2022-08-05T05:45:29.095Z,44.84
2022-08-05T05:48:06.113Z,46.27
2022-08-05T05:50:41.040Z,44.14
2022-08-05T05:53:20.904Z,45.46
2022-08-05T05:55:52.530Z,44.12
2022-08-05T05:58:30.313Z,43.52
2022-08-05T06:01:12.376Z,42.81
2022-08-05T06:04:00.451Z,40.76
2022-08-05T06:06:28.127Z,39.34
2022-08-05T06:08:58.453Z,39.32
2022-08-05T06:11:24.978Z,39.61
2022-08-05T06:13:54.249Z,40.13
2022-08-05T06:16:29.447Z,40.73
2022-08-05T06:19:00.271Z,40.96
2022-08-05T06:21:36.719Z,41.37
2022-08-05T06:24:12.050Z,42.17
2022-08-05T06:26:51.069Z,42.83
2022-08-05T06:29:43.145Z,43.53
2022-08-05T06:32:05.451Z,44.15
2022-08-05T06:34:48.372Z,45.13
2022-08-05T06:37:57.394Z,44.93
2022-08-05T06:40:07.966Z,45.56
2022-08-05T06:42:34.484Z,46.11
2022-08-05T06:45:05.590Z,45.72
2022-08-05T06:47:42.199Z,46.42
2022-08-05T06:50:27.178Z,46.73
2022-08-05T06:52:58.805Z,45.95
2022-08-05T06:55:37.825Z,45.28
2022-08-05T06:58:29.089Z,45.12
2022-08-05T07:00:59.763Z,44.20
2022-08-05T07:03:27.934Z,43.48
2022-08-05T07:05:59.224Z,41.07
2022-08-05T07:08:25.688Z,39.86
2022-08-05T07:10:53.602Z,38.15
2022-08-05T07:13:58.116Z,37.57
2022-08-05T07:18:00.690Z,35.57
2022-08-05T07:22:28.832Z,34.20
2022-08-05T07:24:59.896Z,34.23
2022-08-05T07:27:57.421Z,33.10
2022-08-05T07:30:38.303Z,32.96
2022-08-05T07:33:09.553Z,32.57
2022-08-05T07:36:02.656Z,32.03
2022-08-05T07:38:33.580Z,31.56
2022-08-05T07:42:07.407Z,31.36
2022-08-05T07:43:56.234Z,31.44
2022-08-05T07:46:27.074Z,30.99
2022-08-05T07:49:01.615Z,31.30
2022-08-05T07:51:36.798Z,30.73
2022-08-05T07:54:08.386Z,31.29
2022-08-05T07:57:01.506Z,30.73
2022-08-05T07:59:38.624Z,30.85
2022-08-05T08:02:15.820Z,31.18
2022-08-05T08:04:48.745Z,32.02
2022-08-05T08:07:17.823Z,32.06
2022-08-05T08:09:45.234Z,32.46
2022-08-05T08:12:35.397Z,31.55
2022-08-05T08:15:02.495Z,31.09
2022-08-05T08:17:30.420Z,30.79
2022-08-05T08:20:44.402Z,30.11
2022-08-05T08:22:59.494Z,29.93
2022-08-05T08:25:59.897Z,29.10
2022-08-05T08:28:18.664Z,30.36
2022-08-05T08:31:01.913Z,28.88
2022-08-05T08:33:30.890Z,29.56
2022-08-05T08:36:29.713Z,28.72
2022-08-05T08:38:53.456Z,29.01
2022-08-05T08:41:20.853Z,28.76
2022-08-05T08:45:19.091Z,28.82
2022-08-05T08:46:41.673Z,28.10
2022-08-05T08:50:23.139Z,28.61
2022-08-05T08:52:03.909Z,28.28
2022-08-05T08:54:42.282Z,27.85
2022-08-05T08:57:11.450Z,27.94
2022-08-05T08:59:42.046Z,27.68
2022-08-05T09:02:14.585Z,29.10
2022-08-05T09:04:58.235Z,29.27
2022-08-05T09:07:39.722Z,29.97
2022-08-05T09:10:19.128Z,30.38
2022-08-05T09:12:50.879Z,29.67
2022-08-05T09:15:20.254Z,30.33
2022-08-05T09:17:49.730Z,31.41
2022-08-05T09:20:36.501Z,30.68
2022-08-05T09:23:18.952Z,30.39
2022-08-05T09:26:02.077Z,29.81
2022-08-05T09:28:33.598Z,29.33
2022-08-05T09:32:08.513Z,28.06
2022-08-05T09:34:13.349Z,28.23
2022-08-05T09:36:55.923Z,27.68
2022-08-05T09:39:41.249Z,27.81
2022-08-05T09:42:17.387Z,28.21
2022-08-05T09:44:52.601Z,28.44
2022-08-05T09:47:25.650Z,29.27
2022-08-05T09:50:02.255Z,28.76
2022-08-05T09:52:32.007Z,27.18
2022-08-05T09:55:06.424Z,27.35
2022-08-05T09:57:54.534Z,26.83
2022-08-05T10:00:25.919Z,26.20
2022-08-05T10:02:54.703Z,25.68
2022-08-05T10:05:26.813Z,26.92
2022-08-05T10:08:35.913Z,25.80
2022-08-05T10:10:54.266Z,26.17
2022-08-05T10:13:45.677Z,25.55
2022-08-05T10:16:37.897Z,26.18
2022-08-05T10:19:19.070Z,26.16
2022-08-05T10:21:50.658Z,26.04
2022-08-05T10:24:21.363Z,25.60
2022-08-05T10:26:56.218Z,26.21
2022-08-05T10:30:07.002Z,25.58
2022-08-05T10:33:00.939Z,26.01
2022-08-05T10:35:03.057Z,24.89
2022-08-05T10:37:44.506Z,25.49
2022-08-05T10:40:45.074Z,25.56
2022-08-05T10:43:43.504Z,25.01
2022-08-05T10:46:13.421Z,24.93
2022-08-05T10:48:56.381Z,24.67
2022-08-05T10:51:29.365Z,24.85
2022-08-05T10:54:05.950Z,24.05
2022-08-05T10:56:57.711Z,24.13
2022-08-05T11:00:04.400Z,24.40
2022-08-05T11:02:37.832Z,24.28
2022-08-05T11:05:09.533Z,24.65
2022-08-05T11:08:02.439Z,24.26
2022-08-05T11:10:33.233Z,24.54
2022-08-05T11:13:01.310Z,24.35
2022-08-05T11:16:00.577Z,24.20
2022-08-05T11:18:34.777Z,24.96
2022-08-05T11:21:02.873Z,24.55
2022-08-05T11:23:49.834Z,24.36
2022-08-05T11:26:28.545Z,24.51
2022-08-05T11:29:11.979Z,24.62
2022-08-05T11:31:58.705Z,24.71
2022-08-05T11:34:47.564Z,24.83
2022-08-05T11:38:26.148Z,24.53
2022-08-05T11:41:56.087Z,25.11
2022-08-05T11:44:40.684Z,25.48
2022-08-05T11:47:14.068Z,24.99
2022-08-05T11:49:49.847Z,25.25
2022-08-05T11:52:29.379Z,25.87
2022-08-05T11:54:58.242Z,25.94
2022-08-05T11:57:39.398Z,25.46
2022-08-05T12:00:28.883Z,25.53
2022-08-05T12:02:56.619Z,25.45
2022-08-05T12:05:32.378Z,25.89
2022-08-05T12:08:10.724Z,25.15
2022-08-05T12:10:45.899Z,24.97
2022-08-05T12:13:28.203Z,25.48
2022-08-05T12:16:18.527Z,25.72
2022-08-05T12:18:48.710Z,25.21
2022-08-05T12:21:26.900Z,24.76
2022-08-05T12:24:00.182Z,24.78
2022-08-05T12:26:39.478Z,24.79
2022-08-05T12:29:15.970Z,25.16
2022-08-05T12:31:53.405Z,24.72
2022-08-05T12:34:29.951Z,25.05
2022-08-05T12:37:01.359Z,25.31
2022-08-05T12:39:37.181Z,24.48
2022-08-05T12:42:14.736Z,24.22
2022-08-05T12:44:43.158Z,24.75
2022-08-05T12:47:12.512Z,24.99
2022-08-05T12:50:04.622Z,25.92
2022-08-05T12:52:39.293Z,24.60
2022-08-05T12:55:23.589Z,23.94
2022-08-05T12:58:50.750Z,24.84
2022-08-05T13:02:03.683Z,24.66
2022-08-05T13:03:32.010Z,24.05
2022-08-05T13:05:59.865Z,24.24
2022-08-05T13:08:30.351Z,24.51
2022-08-05T13:11:01.344Z,24.32
2022-08-05T13:14:05.861Z,24.39
2022-08-05T13:16:17.001Z,24.37
2022-08-05T13:18:55.070Z,24.82
2022-08-05T13:21:27.962Z,24.83
2022-08-05T13:23:55.456Z,25.05
2022-08-05T13:26:27.213Z,24.49
2022-08-05T13:28:57.504Z,24.67
2022-08-05T13:32:02.814Z,24.60
2022-08-05T13:34:22.357Z,24.41
2022-08-05T13:36:52.034Z,24.15
2022-08-05T13:40:14.334Z,24.86
2022-08-05T13:42:04.955Z,24.13
2022-08-05T13:44:32.463Z,24.48
2022-08-05T13:47:04.986Z,24.66
2022-08-05T13:49:35.548Z,24.63
2022-08-05T13:52:16.033Z,25.48
2022-08-05T13:54:43.036Z,24.97
2022-08-05T13:57:20.494Z,24.57
2022-08-05T13:59:57.376Z,25.43
2022-08-05T14:02:26.568Z,25.16
2022-08-05T14:05:12.027Z,24.79
2022-08-05T14:07:59.920Z,24.61
2022-08-05T14:10:31.670Z,24.36
2022-08-05T14:12:59.444Z,24.16
2022-08-05T14:16:08.353Z,23.98
2022-08-05T14:18:17.242Z,25.02
2022-08-05T14:20:47.301Z,25.24
2022-08-05T14:23:14.746Z,25.22
2022-08-05T14:25:54.203Z,25.56
2022-08-05T14:28:26.381Z,25.87
2022-08-05T14:30:54.007Z,25.72
2022-08-05T14:33:23.202Z,25.67
2022-08-05T14:35:51.505Z,25.17
2022-08-05T14:38:32.788Z,25.36
2022-08-05T14:41:06.820Z,25.25
2022-08-05T14:44:02.551Z,24.52
2022-08-05T14:46:29.124Z,25.25
2022-08-05T14:48:59.528Z,26.69
2022-08-05T14:51:30.996Z,27.43
2022-08-05T14:54:26.685Z,28.07
2022-08-05T14:56:46.910Z,27.95
2022-08-05T14:59:13.862Z,28.43
2022-08-05T15:01:48.573Z,28.35
2022-08-05T15:04:16.004Z,28.27
2022-08-05T15:06:42.531Z,28.12
2022-08-05T15:09:16.012Z,28.01
2022-08-05T15:12:03.861Z,27.91
2022-08-05T15:14:35.617Z,28.49
2022-08-05T15:17:44.238Z,28.08
2022-08-05T15:19:55.659Z,27.56
2022-08-05T15:22:22.469Z,27.28
2022-08-05T15:24:54.198Z,27.11
2022-08-05T15:27:20.801Z,27.44
2022-08-05T15:29:47.266Z,28.03
2022-08-05T15:32:16.418Z,27.57
2022-08-05T15:34:43.224Z,27.54
2022-08-05T15:37:15.561Z,28.17
2022-08-05T15:40:59.774Z,28.66
2022-08-05T15:42:54.051Z,28.69
2022-08-05T15:45:17.281Z,28.78
2022-08-05T15:47:45.888Z,28.85
2022-08-05T15:50:15.861Z,29.75
2022-08-05T15:52:52.947Z,29.33
2022-08-05T15:55:24.988Z,30.11
2022-08-05T15:58:08.740Z,30.22
2022-08-05T16:01:04.279Z,30.51
2022-08-05T16:03:21.912Z,30.88
2022-08-05T16:05:52.420Z,30.34
2022-08-05T16:08:19.324Z,31.20
2022-08-05T16:10:45.820Z,30.98
2022-08-05T16:13:12.601Z,31.65
2022-08-05T16:15:51.801Z,31.40
2022-08-05T16:18:18.744Z,32.40
2022-08-05T16:20:46.363Z,32.46
2022-08-05T16:23:12.936Z,33.25
2022-08-05T16:25:40.028Z,32.88
2022-08-05T16:28:09.444Z,33.30
2022-08-05T16:30:36.935Z,33.49
2022-08-05T16:33:03.583Z,34.01
2022-08-05T16:35:32.321Z,34.67
2022-08-05T16:38:15.304Z,34.85
2022-08-05T16:40:47.674Z,35.13
2022-08-05T16:43:18.826Z,35.33
2022-08-05T16:46:08.137Z,35.44
2022-08-05T16:48:33.571Z,36.24
2022-08-05T16:51:01.664Z,36.46
2022-08-05T16:53:32.250Z,36.61
2022-08-05T16:56:14.693Z,36.48
2022-08-05T16:58:41.320Z,36.73
2022-08-05T17:01:10.414Z,36.99
2022-08-05T17:03:37.468Z,37.22
2022-08-05T17:06:05.671Z,37.45
2022-08-05T17:08:35.821Z,37.70
2022-08-05T17:11:18.650Z,38.05
2022-08-05T17:13:45.808Z,38.25
2022-08-05T17:16:33.456Z,38.23
2022-08-05T17:19:01.688Z,38.65
2022-08-05T17:21:36.165Z,38.96
2022-08-05T17:24:18.731Z,39.61
2022-08-05T17:26:56.062Z,39.31
2022-08-05T17:29:33.072Z,39.47
2022-08-05T17:32:08.341Z,39.62
2022-08-05T17:34:35.138Z,39.70
2022-08-05T17:37:01.829Z,39.63
2022-08-05T17:39:33.369Z,39.64
2022-08-05T17:42:17.603Z,39.54
2022-08-05T17:44:50.518Z,39.90
2022-08-05T17:47:21.900Z,39.97
2022-08-05T17:49:52.150Z,40.17
2022-08-05T17:52:32.173Z,40.32
2022-08-05T17:54:58.785Z,40.57
2022-08-05T17:57:25.304Z,40.65
2022-08-05T18:00:04.761Z,40.62
2022-08-05T18:02:33.344Z,40.71
2022-08-05T18:05:03.690Z,41.16
2022-08-05T18:07:41.421Z,41.61
2022-08-05T18:10:11.130Z,41.84
2022-08-05T18:12:38.726Z,41.83
2022-08-05T18:15:05.812Z,42.46
2022-08-05T18:18:00.393Z,42.77
2022-08-05T18:20:19.558Z,42.88
2022-08-05T18:22:57.550Z,43.11
2022-08-05T18:25:25.171Z,43.44
2022-08-05T18:27:59.134Z,43.56
2022-08-05T18:30:29.218Z,44.08
2022-08-05T18:33:00.517Z,44.35
2022-08-05T18:36:01.422Z,44.40
2022-08-05T18:38:16.492Z,44.25
2022-08-05T18:41:56.735Z,44.61
2022-08-05T18:43:38.300Z,44.89
2022-08-05T18:46:09.977Z,44.83
2022-08-05T18:48:41.594Z,45.02
2022-08-05T18:52:06.302Z,45.28
2022-08-05T18:54:13.685Z,45.45
2022-08-05T18:56:40.486Z,45.47
2022-08-05T18:59:44.409Z,45.85
2022-08-05T19:01:57.118Z,46.40
2022-08-05T19:04:25.661Z,46.47
2022-08-05T19:06:53.751Z,47.17
2022-08-05T19:09:20.623Z,47.51
2022-08-05T19:11:59.471Z,47.94
2022-08-05T19:14:52.098Z,48.34
2022-08-05T19:17:14.621Z,48.77
2022-08-05T19:19:46.750Z,49.24
2022-08-05T19:22:17.414Z,50.06
2022-08-05T19:24:56.118Z,50.73
2022-08-05T19:27:24.058Z,52.03
2022-08-05T19:29:56.436Z,53.28
2022-08-05T19:32:23.818Z,53.67
2022-08-05T19:34:55.175Z,54.48
2022-08-05T19:37:29.761Z,54.95
2022-08-05T19:40:01.977Z,55.53
2022-08-05T19:42:35.417Z,55.88
2022-08-05T19:45:05.606Z,56.04
2022-08-05T19:47:33.910Z,56.21
2022-08-05T19:50:01.074Z,56.28
2022-08-05T19:52:31.458Z,56.53
2022-08-05T19:56:14.994Z,56.52
2022-08-05T19:58:14.671Z,56.81
2022-08-05T20:00:41.680Z,57.38
2022-08-05T20:03:08.544Z,57.13
2022-08-05T20:05:49.955Z,57.51
2022-08-05T20:08:16.948Z,57.68
2022-08-05T20:10:43.439Z,57.69
2022-08-05T20:13:10.930Z,58.27
2022-08-05T20:15:52.440Z,58.53
2022-08-05T20:18:35.756Z,59.07
2022-08-05T20:21:05.188Z,58.98
2022-08-05T20:23:40.480Z,59.87
2022-08-05T20:26:24.686Z,59.67
2022-08-05T20:28:55.555Z,59.79
2022-08-05T20:31:28.786Z,60.64
2022-08-05T20:34:04.320Z,61.03
2022-08-05T20:36:30.819Z,61.30
2022-08-05T20:38:59.317Z,61.38
2022-08-05T20:41:43.328Z,61.91
2022-08-05T20:44:17.888Z,62.27
2022-08-05T20:46:46.678Z,62.58
2022-08-05T20:49:13.845Z,63.03
2022-08-05T20:51:40.361Z,63.07
2022-08-05T20:54:07.016Z,63.45
2022-08-05T20:56:42.413Z,63.71
2022-08-05T20:59:18.925Z,64.20
2022-08-05T21:01:46.255Z,64.57
2022-08-05T21:04:13.776Z,64.88
2022-08-05T21:06:45.351Z,65.18
2022-08-05T21:09:14.438Z,65.42
2022-08-05T21:12:09.147Z,65.64
2022-08-05T21:14:29.282Z,65.91
2022-08-05T21:17:01.649Z,65.85
2022-08-05T21:19:29.759Z,65.67
2022-08-05T21:22:14.431Z,65.97
2022-08-05T21:24:40.996Z,65.97
2022-08-05T21:27:09.147Z,69.59
2022-08-05T21:29:40.764Z,72.75
2022-08-05T21:32:07.738Z,74.02
2022-08-05T21:34:35.589Z,74.80
2022-08-05T21:37:02.333Z,76.64
2022-08-05T21:39:29.390Z,78.00
2022-08-05T21:42:01.028Z,79.14
2022-08-05T21:44:28.498Z,79.18
2022-08-05T21:46:57.940Z,80.34
2022-08-05T21:49:48.435Z,79.15
2022-08-05T21:52:16.015Z,78.97
2022-08-05T21:54:51.287Z,78.97
2022-08-05T21:57:31.483Z,80.16
2022-08-05T22:00:06.180Z,80.29
2022-08-05T22:02:34.454Z,79.69
2022-08-05T22:05:00.946Z,78.61
2022-08-05T22:07:40.262Z,77.59
2022-08-05T22:10:16.186Z,78.27
2022-08-05T22:12:44.950Z,78.14
2022-08-05T22:16:01.813Z,77.48
2022-08-05T22:18:04.563Z,78.12
2022-08-05T22:20:31.341Z,77.80
2022-08-05T22:23:21.395Z,78.74
2022-08-05T22:26:09.996Z,78.10
2022-08-05T22:28:38.586Z,78.78
2022-08-05T22:31:05.951Z,78.75
2022-08-05T22:33:58.571Z,76.85
2022-08-05T22:36:19.504Z,78.15
2022-08-05T22:38:51.826Z,77.74
2022-08-05T22:42:04.794Z,77.96
2022-08-05T22:44:08.378Z,77.50
2022-08-05T22:46:39.883Z,78.57
2022-08-05T22:49:23.225Z,77.82
2022-08-05T22:52:07.278Z,77.84
2022-08-05T22:54:39.655Z,76.53
2022-08-05T22:57:15.282Z,77.42
2022-08-05T22:59:46.227Z,76.90
2022-08-05T23:02:18.872Z,77.42
2022-08-05T23:04:56.800Z,77.36
2022-08-05T23:07:23.339Z,77.90
2022-08-05T23:09:57.333Z,77.28
2022-08-05T23:12:28.626Z,77.53
2022-08-05T23:14:55.471Z,78.37
2022-08-05T23:17:34.450Z,78.54
2022-08-05T23:20:16.423Z,78.22
2022-08-05T23:22:47.820Z,77.54
2022-08-05T23:25:17.650Z,74.96
2022-08-05T23:28:03.384Z,76.30
2022-08-05T23:30:40.540Z,78.88
2022-08-05T23:33:16.317Z,79.87
2022-08-05T23:35:52.625Z,80.81
2022-08-05T23:38:22.826Z,79.86
2022-08-05T23:40:50.679Z,80.38
2022-08-05T23:43:25.648Z,79.86
2022-08-05T23:46:21.118Z,81.65
2022-08-05T23:48:59.731Z,81.91
2022-08-05T23:51:53.474Z,81.98
2022-08-05T23:54:30.489Z,81.68
2022-08-05T23:57:03.274Z,81.28
